Time;durP1;ratioP1;P1;durP2;ratioP2;P2;SDS_P1;SDS_P2;PMS_P1;PMS_P2;Temp;Humidity;BMP_temperature;BMP_pressure;BME280_temperature;BME280_humidity;BME280_pressure;Samples;Min_cycle;Max_cycle;Signal;HPM_P1;HPM_P2
2021/09/23 00:01:45;;;;;;;10.60;6.78;;;;;17.80;102107.00;;;;5061239;28;20210;-79
2021/09/23 00:04:31;;;;;;;10.57;7.72;;;;;17.80;102105.00;;;;5051275;28;20198;-78
2021/09/23 00:06:59;;;;;;;9.98;6.85;;;;;17.80;102110.00;;;;5068052;28;20219;-78
2021/09/23 00:09:26;;;;;;;10.90;6.90;;;;;17.80;102111.00;;;;5058929;28;20207;-78
2021/09/23 00:11:54;;;;;;;10.00;7.18;;;;;17.80;102106.00;;;;5062928;28;20199;-79
2021/09/23 00:14:21;;;;;;;12.45;8.40;;;;;17.80;102101.00;;;;5065861;28;20200;-79
2021/09/23 00:16:50;;;;;;;12.48;8.35;;;;;17.80;102099.00;;;;5059516;28;20204;-78
2021/09/23 00:19:17;;;;;;;9.82;7.60;;;;;17.80;102102.00;;;;5057498;28;20206;-78
2021/09/23 00:21:44;;;;;;;10.77;7.90;;;;;17.70;102101.00;;;;5053952;28;20202;-79
2021/09/23 00:24:12;;;;;;;12.25;7.65;;;;;17.70;102094.00;;;;5058567;28;20194;-78
2021/09/23 00:26:39;;;;;;;8.90;6.70;;;;;17.70;102106.00;;;;5056529;28;20215;-79
2021/09/23 00:29:07;;;;;;;11.35;7.82;;;;;17.70;102096.00;;;;5061919;28;20195;-79
2021/09/23 00:31:35;;;;;;;9.85;8.05;;;;;17.70;102089.00;;;;5051141;28;20192;-79
2021/09/23 00:34:04;;;;;;;9.65;6.97;;;;;17.60;102080.00;;;;5055533;28;20219;-79
2021/09/23 00:36:31;;;;;;;11.82;7.60;;;;;17.70;102086.00;;;;5049693;28;20216;-79
2021/09/23 00:38:58;;;;;;;10.15;7.30;;;;;17.60;102081.00;;;;5049210;28;20626;-79
2021/09/23 00:41:25;;;;;;;9.90;7.25;;;;;17.60;102075.00;;;;5051433;28;20231;-79
2021/09/23 00:43:53;;;;;;;13.40;8.10;;;;;17.60;102063.00;;;;5050642;28;20198;-79
2021/09/23 00:46:20;;;;;;;12.30;7.60;;;;;17.60;102061.00;;;;5052746;28;20219;-79
2021/09/23 00:48:50;;;;;;;12.80;9.23;;;;;17.60;102052.00;;;;5055571;28;20204;-78
2021/09/23 00:51:19;;;;;;;12.30;8.30;;;;;17.50;102051.00;;;;5055028;28;20281;-79
2021/09/23 00:53:48;;;;;;;10.82;7.80;;;;;17.50;102051.00;;;;5052709;28;20637;-79
2021/09/23 00:56:15;;;;;;;8.65;7.13;;;;;17.50;102058.00;;;;5052511;28;20261;-79
2021/09/23 00:58:43;;;;;;;10.07;7.07;;;;;17.50;102063.00;;;;5068823;28;20202;-79
2021/09/23 01:01:10;;;;;;;11.57;8.07;;;;;17.50;102066.00;;;;5048949;28;20187;-79
2021/09/23 01:03:38;;;;;;;9.45;7.43;;;;;17.50;102058.00;;;;5049743;28;20200;-78
2021/09/23 01:06:05;;;;;;;12.15;8.55;;;;;17.50;102050.00;;;;5048974;28;20291;-79
2021/09/23 01:08:34;;;;;;;11.38;8.25;;;;;17.50;102048.00;;;;5048951;28;20191;-79
2021/09/23 01:11:01;;;;;;;11.30;7.70;;;;;17.50;102052.00;;;;5063972;28;20204;-78
2021/09/23 01:13:28;;;;;;;10.45;7.93;;;;;17.40;102049.00;;;;5064103;28;20191;-78
2021/09/23 01:15:56;;;;;;;11.68;8.10;;;;;17.40;102047.00;;;;5065897;28;20191;-78
2021/09/23 01:18:24;;;;;;;10.90;7.47;;;;;17.40;102041.00;;;;5052350;28;20202;-79
2021/09/23 01:20:52;;;;;;;13.65;8.27;;;;;17.40;102040.00;;;;5053395;28;20191;-79
2021/09/23 01:23:20;;;;;;;10.00;7.63;;;;;17.40;102032.00;;;;5048407;28;20203;-79
2021/09/23 01:25:48;;;;;;;9.82;7.53;;;;;17.40;102027.00;;;;5049361;28;20203;-79
2021/09/23 01:28:15;;;;;;;10.15;7.82;;;;;17.40;102021.00;;;;5062859;28;20718;-78
2021/09/23 01:30:42;;;;;;;10.18;7.65;;;;;17.40;102025.00;;;;5062824;28;20241;-79
2021/09/23 01:33:10;;;;;;;9.25;7.38;;;;;17.30;102024.00;;;;5065987;28;20194;-79
2021/09/23 01:35:37;;;;;;;10.63;7.82;;;;;17.30;102012.00;;;;5056110;28;20191;-79
2021/09/23 01:38:04;;;;;;;9.15;6.95;;;;;17.30;102018.00;;;;5052864;28;20219;-78
2021/09/23 01:40:35;;;;;;;11.68;7.93;;;;;17.30;102016.00;;;;5052159;28;20234;-78
2021/09/23 01:43:02;;;;;;;8.25;7.10;;;;;17.30;102018.00;;;;5051739;28;20206;-78
2021/09/23 01:45:30;;;;;;;9.40;6.97;;;;;17.30;102018.00;;;;5049640;28;20199;-79
2021/09/23 01:47:57;;;;;;;9.93;7.63;;;;;17.30;102008.00;;;;5047952;28;20704;-78
2021/09/23 01:50:24;;;;;;;10.35;7.75;;;;;17.30;102006.00;;;;5049162;28;20614;-79
2021/09/23 01:52:51;;;;;;;10.70;7.38;;;;;17.30;102013.00;;;;5048414;28;20203;-78
2021/09/23 01:55:19;;;;;;;11.00;7.55;;;;;17.30;102013.00;;;;5067109;28;20198;-78
2021/09/23 01:57:47;;;;;;;9.32;8.02;;;;;17.30;102008.00;;;;5057736;28;20214;-78
2021/09/23 02:00:16;;;;;;;8.80;6.63;;;;;17.30;101995.00;;;;5060899;28;20199;-78
2021/09/23 02:02:43;;;;;;;9.10;6.65;;;;;17.30;101989.00;;;;5047575;28;20196;-78
2021/09/23 02:05:11;;;;;;;9.23;7.35;;;;;17.20;101982.00;;;;5048706;28;20199;-79
2021/09/23 02:07:38;;;;;;;10.75;7.80;;;;;17.30;101982.00;;;;5048073;28;20246;-79
2021/09/23 02:10:06;;;;;;;11.13;7.93;;;;;17.20;101959.00;;;;5047218;28;20308;-79
2021/09/23 02:12:33;;;;;;;10.57;8.48;;;;;17.20;101963.00;;;;5048810;28;20214;-79
2021/09/23 02:15:02;;;;;;;11.85;8.10;;;;;17.20;101951.00;;;;5048534;28;20646;-78
2021/09/23 02:17:29;;;;;;;11.10;7.53;;;;;17.20;101953.00;;;;5048570;28;21082;-78
2021/09/23 02:19:58;;;;;;;12.10;8.15;;;;;17.20;101945.00;;;;5051982;28;20776;-78
2021/09/23 02:22:25;;;;;;;11.18;8.52;;;;;17.20;101938.00;;;;5065575;28;20202;-78
2021/09/23 02:24:53;;;;;;;9.85;7.15;;;;;17.30;101933.00;;;;5053485;28;20218;-79
2021/09/23 02:27:20;;;;;;;13.85;8.60;;;;;17.30;101922.00;;;;5048434;28;20230;-78
2021/09/23 02:29:48;;;;;;;11.70;8.00;;;;;17.30;101925.00;;;;5049165;28;20203;-78
2021/09/23 02:32:16;;;;;;;11.13;8.18;;;;;17.30;101921.00;;;;5049004;28;20199;-79
2021/09/23 02:34:44;;;;;;;13.65;8.27;;;;;17.30;101917.00;;;;5052437;28;20207;-79
2021/09/23 02:37:11;;;;;;;11.07;8.20;;;;;17.30;101899.00;;;;5048599;28;20215;-78
2021/09/23 02:39:38;;;;;;;9.85;7.80;;;;;17.30;101890.00;;;;5047850;28;20202;-78
2021/09/23 02:42:06;;;;;;;10.90;8.50;;;;;17.30;101891.00;;;;5058778;28;20245;-78
2021/09/23 02:44:33;;;;;;;11.25;7.68;;;;;17.30;101886.00;;;;5051558;28;20215;-78
2021/09/23 02:47:00;;;;;;;11.00;8.23;;;;;17.30;101883.00;;;;5047591;28;20230;-79
2021/09/23 02:49:29;;;;;;;13.40;8.55;;;;;17.30;101884.00;;;;5048516;28;20191;-79
2021/09/23 02:51:56;;;;;;;12.82;8.48;;;;;17.30;101890.00;;;;5057358;28;20206;-78
2021/09/23 02:54:23;;;;;;;12.00;7.88;;;;;17.30;101885.00;;;;5059922;28;20226;-79
2021/09/23 02:56:50;;;;;;;10.38;7.70;;;;;17.40;101897.00;;;;5055049;28;20696;-78
2021/09/23 02:59:18;;;;;;;15.57;8.75;;;;;17.40;101885.00;;;;5053674;28;20191;-78
2021/09/23 03:01:45;;;;;;;11.60;8.15;;;;;17.40;101888.00;;;;5053103;28;20199;-78
2021/09/23 03:04:12;;;;;;;15.55;10.05;;;;;17.40;101891.00;;;;5056105;28;20574;-79
2021/09/23 03:06:41;;;;;;;10.85;7.85;;;;;17.40;101895.00;;;;5050835;28;20234;-79
2021/09/23 03:09:08;;;;;;;11.55;8.35;;;;;17.40;101892.00;;;;5048347;28;20208;-78
2021/09/23 03:11:37;;;;;;;11.88;8.75;;;;;17.40;101884.00;;;;5056386;28;20192;-78
2021/09/23 03:14:04;;;;;;;11.90;8.52;;;;;17.50;101878.00;;;;5050120;28;21337;-79
2021/09/23 03:16:31;;;;;;;12.38;8.32;;;;;17.50;101875.00;;;;5047069;28;20565;-78
2021/09/23 03:18:58;;;;;;;15.90;9.55;;;;;17.50;101876.00;;;;5047415;28;20254;-78
2021/09/23 03:21:25;;;;;;;11.13;8.45;;;;;17.50;101878.00;;;;5050950;28;20199;-78
2021/09/23 03:23:54;;;;;;;10.40;8.32;;;;;17.50;101870.00;;;;5058901;28;20206;-78
2021/09/23 03:26:21;;;;;;;12.10;8.23;;;;;17.40;101876.00;;;;5054390;28;20204;-78
2021/09/23 03:28:49;;;;;;;11.73;8.57;;;;;17.40;101864.00;;;;5063255;28;20230;-78
2021/09/23 03:31:16;;;;;;;14.30;8.07;;;;;17.40;101864.00;;;;5053499;28;20215;-78
2021/09/23 03:33:43;;;;;;;11.13;8.30;;;;;17.40;101855.00;;;;5065319;28;20623;-79
2021/09/23 03:36:11;;;;;;;11.05;8.27;;;;;17.40;101855.00;;;;5056643;28;20722;-78
2021/09/23 03:38:38;;;;;;;12.73;8.10;;;;;17.40;101850.00;;;;5050734;28;20212;-78
2021/09/23 03:41:07;;;;;;;12.02;7.95;;;;;17.40;101845.00;;;;5055030;28;20219;-79
2021/09/23 03:43:34;;;;;;;10.43;8.13;;;;;17.40;101841.00;;;;5053446;28;20202;-78
2021/09/23 03:46:04;;;;;;;13.07;8.50;;;;;17.40;101844.00;;;;5061987;28;20206;-78
2021/09/23 03:48:32;;;;;;;11.80;8.20;;;;;17.40;101835.00;;;;5063935;28;20268;-78
2021/09/23 03:51:00;;;;;;;14.30;8.63;;;;;17.30;101844.00;;;;5052467;28;20192;-78
2021/09/23 03:53:28;;;;;;;11.38;8.63;;;;;17.30;101848.00;;;;5052122;28;20196;-79
2021/09/23 03:55:55;;;;;;;11.73;7.47;;;;;17.30;101854.00;;;;5060688;28;20192;-78
2021/09/23 03:58:24;;;;;;;13.77;9.15;;;;;17.30;101858.00;;;;5055291;28;20618;-78
2021/09/23 04:00:51;;;;;;;10.43;7.25;;;;;17.30;101857.00;;;;5066500;28;20211;-78
2021/09/23 04:03:18;;;;;;;12.02;8.35;;;;;17.30;101856.00;;;;5070304;28;20218;-78
2021/09/23 04:05:45;;;;;;;10.45;7.63;;;;;17.30;101861.00;;;;5063769;28;20207;-78
2021/09/23 04:08:13;;;;;;;12.15;8.55;;;;;17.30;101869.00;;;;5051158;28;20696;-78
2021/09/23 04:10:40;;;;;;;10.55;8.10;;;;;17.20;101863.00;;;;5052001;28;20191;-78
2021/09/23 04:13:07;;;;;;;12.05;7.72;;;;;17.20;101864.00;;;;5052169;28;20249;-78
2021/09/23 04:15:36;;;;;;;12.98;8.25;;;;;17.20;101859.00;;;;5056507;28;20199;-78
2021/09/23 04:18:04;;;;;;;10.52;7.90;;;;;17.20;101854.00;;;;5050874;28;20195;-78
2021/09/23 04:20:31;;;;;;;12.98;8.27;;;;;17.20;101850.00;;;;5049559;28;20665;-79
2021/09/23 04:22:58;;;;;;;13.02;8.38;;;;;17.20;101857.00;;;;5049983;28;20207;-79
2021/09/23 04:25:25;;;;;;;10.55;8.00;;;;;17.20;101850.00;;;;5049730;28;20214;-78
2021/09/23 04:27:53;;;;;;;11.48;8.15;;;;;17.20;101852.00;;;;5049802;28;20235;-78
2021/09/23 04:30:20;;;;;;;11.77;8.30;;;;;17.20;101842.00;;;;5050063;28;20207;-78
2021/09/23 04:32:48;;;;;;;11.82;8.68;;;;;17.10;101838.00;;;;5051572;28;20203;-79
2021/09/23 04:35:16;;;;;;;13.10;9.02;;;;;17.10;101838.00;;;;5058401;28;20211;-78
2021/09/23 04:37:43;;;;;;;13.60;8.02;;;;;17.10;101823.00;;;;5063100;28;20223;-78
2021/09/23 04:40:12;;;;;;;12.30;9.23;;;;;17.10;101816.00;;;;5064867;28;20222;-78
2021/09/23 04:42:41;;;;;;;11.23;8.07;;;;;17.10;101815.00;;;;5061535;28;20191;-78
2021/09/23 04:45:09;;;;;;;10.93;8.27;;;;;17.10;101806.00;;;;5053731;28;20207;-78
2021/09/23 04:47:37;;;;;;;11.88;8.48;;;;;17.10;101796.00;;;;5049872;28;20223;-78
2021/09/23 04:50:06;;;;;;;10.88;8.40;;;;;17.10;101790.00;;;;5049232;28;20207;-78
2021/09/23 04:52:34;;;;;;;13.20;9.02;;;;;17.10;101788.00;;;;5049809;28;20199;-78
2021/09/23 04:55:01;;;;;;;11.65;8.55;;;;;17.10;101783.00;;;;5050465;28;20206;-78
2021/09/23 04:57:28;;;;;;;12.95;8.45;;;;;17.10;101771.00;;;;5049998;28;20192;-78
2021/09/23 04:59:55;;;;;;;12.50;9.07;;;;;17.10;101765.00;;;;5049358;28;20191;-78
2021/09/23 05:02:23;;;;;;;11.95;8.65;;;;;17.10;101756.00;;;;5049928;28;20752;-78
2021/09/23 05:04:50;;;;;;;13.98;8.52;;;;;17.10;101748.00;;;;5048803;28;20199;-78
2021/09/23 05:07:19;;;;;;;12.43;8.55;;;;;17.10;101749.00;;;;5048479;28;20192;-78
2021/09/23 05:09:46;;;;;;;13.38;8.68;;;;;17.10;101757.00;;;;5049630;28;20201;-78
2021/09/23 05:12:13;;;;;;;13.98;8.85;;;;;17.10;101753.00;;;;5049558;28;20203;-78
2021/09/23 05:14:40;;;;;;;12.98;8.57;;;;;17.10;101753.00;;;;5048536;28;20188;-78
2021/09/23 05:17:08;;;;;;;11.85;8.98;;;;;17.10;101756.00;;;;5048927;28;20670;-78
2021/09/23 05:19:35;;;;;;;12.98;9.95;;;;;17.10;101749.00;;;;5048694;28;20184;-78
2021/09/23 05:22:02;;;;;;;12.82;9.40;;;;;17.10;101750.00;;;;5057360;28;20561;-79
2021/09/23 05:24:31;;;;;;;12.13;8.95;;;;;17.10;101750.00;;;;5060647;28;20613;-79
2021/09/23 05:26:58;;;;;;;14.43;10.18;;;;;17.10;101746.00;;;;5052575;28;20204;-78
2021/09/23 05:29:25;;;;;;;12.93;9.63;;;;;17.20;101742.00;;;;5059030;28;20223;-78
2021/09/23 05:31:53;;;;;;;13.77;10.10;;;;;17.10;101735.00;;;;5055112;28;20203;-79
2021/09/23 05:34:20;;;;;;;15.35;10.75;;;;;17.20;101745.00;;;;5049079;28;20203;-79
2021/09/23 05:36:47;;;;;;;14.02;10.63;;;;;17.20;101749.00;;;;5059305;28;20225;-77
2021/09/23 05:39:15;;;;;;;13.77;9.85;;;;;17.20;101745.00;;;;5052487;28;20688;-79
2021/09/23 05:41:43;;;;;;;18.25;12.38;;;;;17.20;101741.00;;;;5051395;28;20228;-78
2021/09/23 05:44:11;;;;;;;17.08;11.85;;;;;17.30;101734.00;;;;5055549;28;20222;-79
2021/09/23 05:46:38;;;;;;;14.27;10.65;;;;;17.30;101740.00;;;;5047436;28;20188;-79
2021/09/23 05:49:06;;;;;;;17.73;11.50;;;;;17.30;101737.00;;;;5048767;28;20223;-78
2021/09/23 05:51:33;;;;;;;15.98;11.13;;;;;17.40;101738.00;;;;5048478;28;20207;-78
2021/09/23 05:54:00;;;;;;;15.70;10.85;;;;;17.40;101737.00;;;;5048804;28;20249;-78
2021/09/23 05:56:28;;;;;;;17.98;11.82;;;;;17.40;101733.00;;;;5048878;28;20215;-78
2021/09/23 05:58:56;;;;;;;16.70;11.35;;;;;17.50;101724.00;;;;5046922;28;20688;-78
2021/09/23 06:01:23;;;;;;;14.70;10.88;;;;;17.50;101721.00;;;;5048782;28;20210;-77
2021/09/23 06:03:51;;;;;;;17.95;12.13;;;;;17.50;101720.00;;;;5062138;28;20862;-81
2021/09/23 06:06:18;;;;;;;13.50;10.75;;;;;17.60;101728.00;;;;5055489;28;20191;-81
2021/09/23 06:08:45;;;;;;;15.90;11.40;;;;;17.70;101722.00;;;;5052317;28;20237;-81
2021/09/23 06:11:13;;;;;;;16.33;11.35;;;;;17.70;101732.00;;;;5046539;28;20673;-82
2021/09/23 06:13:41;;;;;;;15.98;11.68;;;;;17.70;101731.00;;;;5047545;28;20199;-82
2021/09/23 06:16:10;;;;;;;16.88;11.98;;;;;17.80;101730.00;;;;5060093;28;20996;-81
2021/09/23 06:18:37;;;;;;;15.45;11.10;;;;;17.80;101729.00;;;;5054751;28;20202;-81
2021/09/23 06:21:07;;;;;;;15.93;11.20;;;;;17.90;101745.00;;;;5048422;28;20210;-82
2021/09/23 06:23:35;;;;;;;16.77;12.48;;;;;18.00;101743.00;;;;5048011;28;20192;-81
2021/09/23 06:26:03;;;;;;;16.58;12.45;;;;;18.10;101743.00;;;;5047964;28;20200;-81
2021/09/23 06:28:30;;;;;;;18.40;11.68;;;;;18.10;101742.00;;;;5047874;28;20219;-81
2021/09/23 06:30:59;;;;;;;15.75;11.63;;;;;18.20;101741.00;;;;5047450;28;20199;-81
2021/09/23 06:33:27;;;;;;;16.58;11.05;;;;;18.30;101734.00;;;;5048224;28;20669;-82
2021/09/23 06:35:55;;;;;;;17.52;12.30;;;;;18.40;101732.00;;;;5047731;28;20200;-81
2021/09/23 06:38:22;;;;;;;16.75;12.90;;;;;18.40;101733.00;;;;5050515;28;20222;-83
2021/09/23 06:40:50;;;;;;;16.45;11.85;;;;;18.50;101726.00;;;;5048829;28;20227;-83
2021/09/23 06:43:18;;;;;;;18.23;12.90;;;;;18.60;101722.00;;;;5048813;28;20220;-83
2021/09/23 06:45:45;;;;;;;14.15;11.85;;;;;18.60;101710.00;;;;5048207;28;20191;-82
2021/09/23 06:48:12;;;;;;;19.27;12.85;;;;;18.70;101701.00;;;;5048624;28;20219;-83
2021/09/23 06:50:41;;;;;;;21.77;13.73;;;;;18.70;101705.00;;;;5050025;28;20207;-83
2021/09/23 06:53:08;;;;;;;18.17;13.48;;;;;18.80;101716.00;;;;5048872;28;20211;-83
2021/09/23 06:55:36;;;;;;;17.42;11.85;;;;;18.90;101710.00;;;;5050482;28;21091;-83
2021/09/23 06:58:03;;;;;;;17.77;12.45;;;;;18.90;101723.00;;;;5048590;28;20199;-82
2021/09/23 07:00:30;;;;;;;16.58;12.13;;;;;19.00;101720.00;;;;5048338;28;20203;-82
2021/09/23 07:02:57;;;;;;;20.23;13.32;;;;;19.00;101729.00;;;;5048133;28;20195;-82
2021/09/23 07:05:25;;;;;;;16.20;11.90;;;;;19.10;101728.00;;;;5047971;28;20215;-83
2021/09/23 07:07:53;;;;;;;16.35;12.45;;;;;19.10;101730.00;;;;5066363;28;20692;-83
2021/09/23 07:10:20;;;;;;;17.85;12.30;;;;;19.20;101726.00;;;;5067162;28;20191;-83
2021/09/23 07:12:48;;;;;;;15.88;11.48;;;;;19.20;101715.00;;;;5067518;28;20199;-83
2021/09/23 07:15:15;;;;;;;18.20;12.63;;;;;19.30;101705.00;;;;5069185;28;20199;-83
2021/09/23 07:17:42;;;;;;;16.15;12.98;;;;;19.30;101695.00;;;;5071832;28;20203;-83
2021/09/23 07:20:11;;;;;;;19.48;12.65;;;;;19.40;101701.00;;;;5066826;28;20203;-83
2021/09/23 07:22:38;;;;;;;20.35;12.30;;;;;19.40;101699.00;;;;5053360;28;20191;-83
2021/09/23 07:25:08;;;;;;;18.40;13.85;;;;;19.50;101702.00;;;;5071606;28;20198;-82
2021/09/23 07:27:35;;;;;;;19.02;13.43;;;;;19.60;101702.00;;;;5072146;28;20225;-83
2021/09/23 07:30:03;;;;;;;20.50;14.30;;;;;19.60;101694.00;;;;5071899;28;20230;-83
2021/09/23 07:32:30;;;;;;;16.42;12.27;;;;;19.70;101693.00;;;;5071741;28;20210;-83
2021/09/23 07:34:57;;;;;;;19.80;15.07;;;;;19.80;101693.00;;;;5072431;28;20583;-83
2021/09/23 07:37:24;;;;;;;17.77;13.55;;;;;19.90;101690.00;;;;5063853;28;20220;-83
2021/09/23 07:39:52;;;;;;;19.52;13.77;;;;;19.90;101669.00;;;;5052682;28;20203;-84
2021/09/23 07:42:20;;;;;;;20.38;14.10;;;;;20.00;101656.00;;;;5071631;28;20203;-84
2021/09/23 07:44:48;;;;;;;18.85;13.45;;;;;20.10;101654.00;;;;5071245;28;20203;-81
2021/09/23 07:47:15;;;;;;;17.80;12.82;;;;;20.10;101646.00;;;;5071369;28;20661;-83
2021/09/23 07:49:42;;;;;;;17.67;12.32;;;;;20.20;101637.00;;;;5071705;28;20227;-82
2021/09/23 07:52:10;;;;;;;18.77;12.70;;;;;20.30;101641.00;;;;5070510;28;20198;-82
2021/09/23 07:54:37;;;;;;;15.68;12.35;;;;;20.40;101639.00;;;;5071236;28;20210;-83
2021/09/23 07:57:05;;;;;;;19.80;13.85;;;;;20.50;101633.00;;;;5071097;28;20210;-84
2021/09/23 07:59:33;;;;;;;17.33;12.55;;;;;20.60;101634.00;;;;5071717;28;20210;-83
2021/09/23 08:02:01;;;;;;;19.45;12.90;;;;;20.60;101625.00;;;;5071257;28;20206;-85
2021/09/23 08:04:28;;;;;;;17.00;12.18;;;;;20.70;101631.00;;;;5070883;28;20211;-83
2021/09/23 08:06:55;;;;;;;17.42;13.18;;;;;20.80;101637.00;;;;5067489;28;21014;-82
2021/09/23 08:09:23;;;;;;;17.83;12.68;;;;;20.90;101638.00;;;;5057729;28;20230;-83
2021/09/23 08:11:50;;;;;;;16.38;11.88;;;;;21.00;101634.00;;;;5051628;28;20218;-83
2021/09/23 08:14:18;;;;;;;14.43;10.27;;;;;21.10;101641.00;;;;5056151;28;20207;-82
2021/09/23 08:16:48;;;;;;;15.13;11.40;;;;;21.20;101646.00;;;;5057628;28;20195;-83
2021/09/23 08:19:16;;;;;;;17.98;13.23;;;;;21.30;101653.00;;;;5069719;28;20206;-82
2021/09/23 08:21:43;;;;;;;13.90;10.55;;;;;21.40;101658.00;;;;5071122;28;20206;-82
2021/09/23 08:24:10;;;;;;;16.52;11.23;;;;;21.50;101655.00;;;;5069767;28;20795;-83
2021/09/23 08:26:37;;;;;;;14.18;10.32;;;;;21.70;101654.00;;;;5070307;28;20202;-83
2021/09/23 08:29:05;;;;;;;15.43;10.60;;;;;21.70;101655.00;;;;5070971;28;20226;-84
2021/09/23 08:31:32;;;;;;;16.73;11.13;;;;;21.80;101665.00;;;;5069723;28;20222;-84
2021/09/23 08:34:01;;;;;;;14.32;10.68;;;;;22.00;101671.00;;;;5070590;28;20210;-84
2021/09/23 08:36:28;;;;;;;14.18;9.30;;;;;22.00;101678.00;;;;5068868;28;20207;-83
2021/09/23 08:38:55;;;;;;;13.52;9.73;;;;;22.10;101672.00;;;;5070642;28;21076;-83
2021/09/23 08:41:22;;;;;;;14.88;11.32;;;;;22.10;101678.00;;;;5070636;28;20234;-83
2021/09/23 08:43:50;;;;;;;14.82;10.30;;;;;22.20;101675.00;;;;5058485;28;20200;-82
2021/09/23 08:46:18;;;;;;;12.57;9.05;;;;;22.20;101672.00;;;;5049265;28;20219;-83
2021/09/23 08:48:48;;;;;;;16.52;10.48;;;;;22.30;101677.00;;;;5050821;28;20224;-83
2021/09/23 08:51:17;;;;;;;12.23;9.60;;;;;22.30;101682.00;;;;5050098;28;20199;-83
2021/09/23 08:53:44;;;;;;;14.63;10.35;;;;;22.30;101678.00;;;;5050801;28;20218;-83
2021/09/23 08:56:13;;;;;;;14.95;9.32;;;;;22.30;101677.00;;;;5050651;28;20669;-83
2021/09/23 08:58:40;;;;;;;13.10;9.10;;;;;22.40;101673.00;;;;5052609;28;20610;-82
2021/09/23 09:01:09;;;;;;;12.85;9.45;;;;;22.40;101681.00;;;;5070371;28;20202;-83
2021/09/23 09:03:38;;;;;;;12.77;9.02;;;;;22.50;101678.00;;;;5069796;28;20574;-82
2021/09/23 09:06:07;;;;;;;14.30;7.97;;;;;22.60;101680.00;;;;5065844;28;20210;-83
2021/09/23 09:08:37;;;;;;;11.27;8.32;;;;;22.60;101675.00;;;;5070305;28;20203;-83
2021/09/23 09:11:06;;;;;;;15.35;9.27;;;;;22.70;101671.00;;;;5070019;28;20205;-83
2021/09/23 09:13:35;;;;;;;10.68;8.25;;;;;22.70;101669.00;;;;5061730;28;20191;-82
2021/09/23 09:16:08;;;;;;;13.35;7.93;;;;;22.70;101670.00;;;;5050104;28;20196;-83
2021/09/23 09:18:36;;;;;;;11.32;7.45;;;;;22.80;101662.00;;;;5050468;28;20218;-82
2021/09/23 09:21:07;;;;;;;10.35;7.32;;;;;22.80;101670.00;;;;5069062;28;20195;-82
2021/09/23 09:23:42;;;;;;;9.45;7.57;;;;;22.80;101670.00;;;;5053524;28;20211;-83
2021/09/23 09:26:10;;;;;;;11.15;6.60;;;;;22.80;101659.00;;;;5049639;28;20203;-83
2021/09/23 09:28:49;;;;;;;8.07;6.35;;;;;22.70;101652.00;;;;5049517;28;20199;-82
2021/09/23 09:31:16;;;;;;;8.02;6.07;;;;;22.80;101650.00;;;;5049341;28;20202;-83
2021/09/23 09:33:46;;;;;;;7.95;6.10;;;;;22.90;101647.00;;;;5049073;28;20191;-82
2021/09/23 09:36:31;;;;;;;8.43;6.68;;;;;22.80;101639.00;;;;5065034;28;20195;-83
2021/09/23 09:39:03;;;;;;;6.75;5.75;;;;;23.00;101640.00;;;;5065782;28;20213;-83
2021/09/23 09:41:34;;;;;;;13.43;7.47;;;;;23.20;101649.00;;;;5049717;28;20231;-83
2021/09/23 09:44:03;;;;;;;8.98;6.45;;;;;23.30;101643.00;;;;5049601;28;20199;-84
2021/09/23 09:46:33;;;;;;;7.45;5.63;;;;;23.30;101643.00;;;;5049600;28;20219;-84
2021/09/23 09:49:01;;;;;;;7.30;5.13;;;;;23.40;101651.00;;;;5050769;28;20318;-83
2021/09/23 09:51:37;;;;;;;6.75;4.75;;;;;23.40;101649.00;;;;5069686;28;20221;-83
2021/09/23 09:54:09;;;;;;;10.48;5.07;;;;;23.50;101655.00;;;;5069455;28;20198;-82
2021/09/23 09:56:37;;;;;;;5.32;4.10;;;;;23.60;101655.00;;;;5061399;28;20242;-82
2021/09/23 09:59:05;;;;;;;3.92;3.35;;;;;23.60;101653.00;;;;5049203;28;20242;-83
2021/09/23 10:01:33;;;;;;;5.80;3.25;;;;;23.60;101660.00;;;;5049243;28;20200;-84
2021/09/23 10:04:01;;;;;;;10.93;2.50;;;;;23.60;101659.00;;;;5048615;28;20270;-82
2021/09/23 10:06:29;;;;;;;2.92;2.08;;;;;23.60;101650.00;;;;5048780;28;20198;-82
2021/09/23 10:08:56;;;;;;;2.10;1.85;;;;;23.60;101662.00;;;;5049400;28;20242;-83
2021/09/23 10:11:26;;;;;;;3.00;1.90;;;;;23.70;101649.00;;;;5048778;28;20210;-82
2021/09/23 10:13:54;;;;;;;3.63;1.67;;;;;23.80;101660.00;;;;5058968;28;20199;-82
2021/09/23 10:16:22;;;;;;;8.50;2.13;;;;;23.80;101658.00;;;;5069029;28;20202;-82
2021/09/23 10:18:51;;;;;;;3.20;1.85;;;;;23.90;101659.00;;;;5068108;28;20206;-83
2021/09/23 10:21:18;;;;;;;2.42;1.45;;;;;23.90;101663.00;;;;5052927;28;20200;-84
2021/09/23 10:23:45;;;;;;;4.18;1.77;;;;;23.90;101661.00;;;;5048636;28;20776;-85
2021/09/23 10:26:16;;;;;;;4.28;2.90;;;;;23.90;101662.00;;;;5049258;28;20542;-83
2021/09/23 10:28:46;;;;;;;3.70;1.50;;;;;23.90;101663.00;;;;5048737;28;20207;-83
2021/09/23 10:31:18;;;;;;;4.93;1.77;;;;;23.90;101664.00;;;;5061368;28;20222;-84
2021/09/23 10:33:47;;;;;;;2.92;1.75;;;;;23.90;101663.00;;;;5068502;28;20187;-84
2021/09/23 10:36:16;;;;;;;4.10;1.65;;;;;23.90;101667.00;;;;5066875;28;20202;-83
2021/09/23 10:38:44;;;;;;;2.58;1.80;;;;;23.80;101665.00;;;;5050207;28;20226;-83
2021/09/23 10:41:13;;;;;;;1.92;1.48;;;;;23.90;101672.00;;;;5048461;28;20227;-84
2021/09/23 10:43:42;;;;;;;2.22;1.45;;;;;23.80;101666.00;;;;5048219;28;20195;-82
2021/09/23 10:46:12;;;;;;;1.73;1.40;;;;;23.80;101664.00;;;;5048499;28;20241;-83
2021/09/23 10:48:39;;;;;;;2.95;1.77;;;;;23.80;101662.00;;;;5066599;28;20234;-83
2021/09/23 10:51:10;;;;;;;1.92;1.10;;;;;23.80;101667.00;;;;5072609;28;20241;-82
2021/09/23 10:53:38;;;;;;;5.57;1.77;;;;;23.70;101677.00;;;;5060870;28;20188;-83
2021/09/23 10:56:06;;;;;;;2.30;1.30;;;;;23.70;101669.00;;;;5057697;28;20320;-83
2021/09/23 10:58:34;;;;;;;2.20;1.50;;;;;23.70;101659.00;;;;5073191;28;20195;-83
2021/09/23 11:01:04;;;;;;;2.97;1.30;;;;;23.70;101658.00;;;;5073388;28;20191;-83
2021/09/23 11:03:38;;;;;;;1.63;1.30;;;;;23.60;101650.00;;;;5072817;28;21458;-83
2021/09/23 11:06:10;;;;;;;3.50;1.33;;;;;23.60;101648.00;;;;5052690;28;20206;-82
2021/09/23 11:08:42;;;;;;;4.28;1.30;;;;;23.70;101635.00;;;;5051812;28;20210;-83
2021/09/23 11:11:10;;;;;;;4.65;1.60;;;;;23.90;101631.00;;;;5052604;28;20230;-83
2021/09/23 11:13:38;;;;;;;2.22;1.60;;;;;24.00;101625.00;;;;5052067;28;20692;-82
2021/09/23 11:16:07;;;;;;;2.45;2.00;;;;;24.10;101627.00;;;;5052330;28;20550;-83
2021/09/23 11:18:40;;;;;;;4.55;1.60;;;;;24.20;101628.00;;;;5052484;28;20195;-84
2021/09/23 11:21:08;;;;;;;3.83;2.05;;;;;24.30;101628.00;;;;5051873;28;20207;-84
2021/09/23 11:23:37;;;;;;;4.13;1.80;;;;;24.40;101616.00;;;;5052286;28;20191;-83
2021/09/23 11:26:05;;;;;;;4.10;2.00;;;;;24.60;101626.00;;;;5054410;28;20202;-85
2021/09/23 11:28:33;;;;;;;3.53;1.90;;;;;24.70;101619.00;;;;5071944;28;20199;-84
2021/09/23 11:31:01;;;;;;;3.60;1.60;;;;;24.80;101606.00;;;;5071570;28;20226;-84
2021/09/23 11:33:29;;;;;;;2.08;1.40;;;;;24.90;101603.00;;;;5071708;28;20582;-83
2021/09/23 11:35:58;;;;;;;3.83;2.30;;;;;25.00;101606.00;;;;5071584;28;20199;-85
2021/09/23 11:38:26;;;;;;;4.00;1.88;;;;;25.10;101604.00;;;;5070344;28;20240;-84
2021/09/23 11:40:58;;;;;;;5.25;1.80;;;;;25.20;101590.00;;;;5071797;28;20227;-84
2021/09/23 11:43:29;;;;;;;2.13;1.35;;;;;25.20;101595.00;;;;5071512;28;20206;-83
2021/09/23 11:45:58;;;;;;;2.63;1.52;;;;;25.30;101613.00;;;;5071268;28;20210;-84
2021/09/23 11:48:34;;;;;;;5.18;1.70;;;;;25.30;101600.00;;;;5061060;28;20877;-84
2021/09/23 11:51:05;;;;;;;3.45;1.65;;;;;25.30;101618.00;;;;5051212;28;20259;-83
2021/09/23 11:53:34;;;;;;;2.55;1.40;;;;;25.30;101597.00;;;;5052304;28;20211;-85
2021/09/23 11:56:05;;;;;;;2.75;1.77;;;;;25.30;101591.00;;;;5052649;28;20203;-84
2021/09/23 11:58:35;;;;;;;4.38;2.05;;;;;25.30;101590.00;;;;5052270;28;20195;-85
2021/09/23 12:01:03;;;;;;;3.65;1.52;;;;;25.30;101590.00;;;;5050888;28;20573;-84
2021/09/23 12:03:36;;;;;;;1.92;1.48;;;;;25.30;101591.00;;;;5051285;28;20195;-83